Time;durP1;ratioP1;P1;durP2;ratioP2;P2;SDS_P1;SDS_P2;PMS_P1;PMS_P2;Temp;Humidity;BMP_temperature;BMP_pressure;BME280_temperature;BME280_humidity;BME280_pressure;Samples;Min_cycle;Max_cycle;Signal;HPM_P1;HPM_P2
2022/04/13 02:57:06;;;;;;;10.88;9.77;;;;;;;;;;5024273;23;20136;-84
2022/04/13 02:59:32;;;;;;;11.25;10.38;;;;;;;;;;5026820;28;20033;-84
2022/04/13 03:01:58;;;;;;;11.73;10.73;;;;;;;;;;5005919;28;20050;-82
2022/04/13 03:04:25;;;;;;;11.73;10.73;;;;;;;;;;5007009;28;20034;-84
2022/04/13 03:06:50;;;;;;;10.77;9.77;;;;;;;;;;5003696;28;20090;-83
2022/04/13 03:09:16;;;;;;;10.32;9.50;;;;;;;;;;5004313;28;20478;-83
2022/04/13 03:11:42;;;;;;;12.20;11.20;;;;;;;;;;5001890;28;20050;-83
2022/04/13 03:14:08;;;;;;;11.32;10.32;;;;;;;;;;5007306;28;20058;-83
2022/04/13 03:16:34;;;;;;;15.57;10.80;;;;;;;;;;5005241;28;20048;-83
2022/04/13 03:19:01;;;;;;;10.73;9.73;;;;;;;;;;5004632;28;20624;-82
2022/04/13 03:21:27;;;;;;;12.40;11.27;;;;;;;;;;4998765;28;20042;-83
2022/04/13 03:23:53;;;;;;;12.23;11.07;;;;;;;;;;5025012;28;20050;-83
2022/04/13 03:26:19;;;;;;;10.70;9.75;;;;;;;;;;5030299;28;20046;-83
2022/04/13 03:28:45;;;;;;;11.15;10.20;;;;;;;;;;5030259;28;20038;-82
2022/04/13 03:31:11;;;;;;;15.27;14.13;;;;;;;;;;5027762;28;20050;-85
2022/04/13 03:33:37;;;;;;;11.95;11.02;;;;;;;;;;5012960;28;20045;-84
2022/04/13 03:36:03;;;;;;;11.88;10.95;;;;;;;;;;5030247;28;20053;-83
2022/04/13 03:38:29;;;;;;;11.48;10.48;;;;;;;;;;5026381;28;20037;-82
2022/04/13 03:40:55;;;;;;;12.02;10.77;;;;;;;;;;5024788;28;20391;-82
2022/04/13 03:43:20;;;;;;;11.10;10.18;;;;;;;;;;5039776;28;20046;-82
2022/04/13 03:45:46;;;;;;;13.52;12.43;;;;;;;;;;5023928;28;20575;-83
2022/04/13 03:48:12;;;;;;;12.95;11.27;;;;;;;;;;5005294;28;20046;-83
2022/04/13 03:50:38;;;;;;;10.65;9.75;;;;;;;;;;5023696;28;20109;-81
2022/04/13 03:53:04;;;;;;;11.55;10.50;;;;;;;;;;5039766;28;20064;-83
2022/04/13 03:55:30;;;;;;;13.00;11.55;;;;;;;;;;5022362;28;20045;-83
2022/04/13 03:57:55;;;;;;;19.10;13.10;;;;;;;;;;5020797;28;20117;-83
2022/04/13 04:00:21;;;;;;;11.70;10.48;;;;;;;;;;5022916;28;20050;-82
2022/04/13 04:02:47;;;;;;;11.00;9.88;;;;;;;;;;5023262;28;20038;-83
2022/04/13 04:05:13;;;;;;;11.38;10.27;;;;;;;;;;5022418;28;20107;-83
2022/04/13 04:07:39;;;;;;;11.05;10.25;;;;;;;;;;5038651;28;20038;-82
2022/04/13 04:10:06;;;;;;;11.30;10.30;;;;;;;;;;5007747;28;20049;-82
2022/04/13 04:12:41;;;;;;;10.25;9.45;;;;;;;;;;5024949;28;20038;-83
2022/04/13 04:15:09;;;;;;;7.63;7.13;;;;;;;;;;5024549;28;20490;-84
2022/04/13 04:17:35;;;;;;;7.97;7.28;;;;;;;;;;5022398;28;20042;-83
2022/04/13 04:20:01;;;;;;;7.15;6.65;;;;;;;;;;4988513;28;20044;-83
2022/04/13 04:22:26;;;;;;;7.35;6.78;;;;;;;;;;5004494;28;20050;-83
2022/04/13 04:24:53;;;;;;;9.45;8.80;;;;;;;;;;5005527;28;20441;-83
2022/04/13 04:27:19;;;;;;;8.60;7.80;;;;;;;;;;5025361;28;20044;-82
2022/04/13 04:29:45;;;;;;;7.38;6.88;;;;;;;;;;5028495;28;20079;-83
2022/04/13 04:32:10;;;;;;;8.88;8.20;;;;;;;;;;5010101;28;20560;-83
2022/04/13 04:34:36;;;;;;;9.40;8.60;;;;;;;;;;5029793;28;20050;-83
2022/04/13 04:37:03;;;;;;;10.98;10.15;;;;;;;;;;5026583;28;20042;-84
2022/04/13 04:39:29;;;;;;;9.77;8.75;;;;;;;;;;5022664;28;20084;-84
2022/04/13 04:41:55;;;;;;;10.52;9.63;;;;;;;;;;5004763;28;20038;-83
2022/04/13 04:44:21;;;;;;;8.63;7.80;;;;;;;;;;5007547;28;20034;-84
2022/04/13 04:46:46;;;;;;;10.50;9.73;;;;;;;;;;5028716;28;20093;-84
2022/04/13 04:49:12;;;;;;;8.70;8.13;;;;;;;;;;5026953;28;20077;-83
2022/04/13 04:51:38;;;;;;;8.85;8.35;;;;;;;;;;5028967;28;20061;-81
2022/04/13 04:54:04;;;;;;;9.18;8.32;;;;;;;;;;5011194;28;20110;-83
2022/04/13 04:56:30;;;;;;;9.50;8.80;;;;;;;;;;5011953;28;20054;-84
2022/04/13 04:58:57;;;;;;;10.45;9.55;;;;;;;;;;5011818;28;20057;-83
2022/04/13 05:01:23;;;;;;;9.63;8.82;;;;;;;;;;5029411;28;20030;-84
2022/04/13 05:03:51;;;;;;;8.85;8.15;;;;;;;;;;4973195;28;20042;-83
2022/04/13 05:06:21;;;;;;;8.52;7.88;;;;;;;;;;5028301;28;20033;-83
2022/04/13 05:08:47;;;;;;;10.20;9.18;;;;;;;;;;5030686;28;20038;-84
2022/04/13 05:11:13;;;;;;;8.32;7.68;;;;;;;;;;5012673;28;20149;-83
2022/04/13 05:13:39;;;;;;;6.90;5.88;;;;;;;;;;5028959;28;20053;-83
2022/04/13 05:16:06;;;;;;;10.05;7.78;;;;;;;;;;5029485;28;20632;-83
2022/04/13 05:18:32;;;;;;;7.88;7.10;;;;;;;;;;5006452;28;20119;-83
2022/04/13 05:20:58;;;;;;;8.48;7.18;;;;;;;;;;4991352;28;20038;-82
2022/04/13 05:23:23;;;;;;;7.93;7.20;;;;;;;;;;5025358;28;20129;-83
2022/04/13 05:25:49;;;;;;;6.97;6.47;;;;;;;;;;5023131;28;20092;-83
2022/04/13 05:28:16;;;;;;;7.07;6.53;;;;;;;;;;5023197;28;20050;-82
2022/04/13 05:30:41;;;;;;;7.53;6.82;;;;;;;;;;5025173;28;20030;-83
2022/04/13 05:33:07;;;;;;;7.57;7.03;;;;;;;;;;5008269;28;20105;-83
2022/04/13 05:35:33;;;;;;;9.07;8.38;;;;;;;;;;5022389;28;20046;-81
2022/04/13 05:38:02;;;;;;;10.93;7.43;;;;;;;;;;5037890;28;20414;-82
2022/04/13 05:40:28;;;;;;;8.02;7.38;;;;;;;;;;5024290;28;20041;-81
2022/04/13 05:42:53;;;;;;;7.80;7.20;;;;;;;;;;4991138;28;20502;-83
2022/04/13 05:45:20;;;;;;;8.05;7.25;;;;;;;;;;5032659;28;20052;-81
2022/04/13 05:47:48;;;;;;;8.45;7.65;;;;;;;;;;5033572;28;20034;-81
2022/04/13 05:50:14;;;;;;;8.23;7.70;;;;;;;;;;5033345;28;20126;-81
2022/04/13 05:52:40;;;;;;;16.33;9.23;;;;;;;;;;4995151;28;20048;-83
2022/04/13 05:55:07;;;;;;;10.45;8.80;;;;;;;;;;5023118;28;20144;-81
2022/04/13 05:57:33;;;;;;;10.10;9.40;;;;;;;;;;4999485;28;20045;-82
2022/04/13 05:59:58;;;;;;;10.40;9.50;;;;;;;;;;4999309;28;20050;-82
2022/04/13 06:02:24;;;;;;;11.32;10.32;;;;;;;;;;5020602;28;20044;-83
2022/04/13 06:04:51;;;;;;;11.35;10.45;;;;;;;;;;5005678;28;20061;-82
2022/04/13 06:07:17;;;;;;;11.73;10.55;;;;;;;;;;5006796;28;20042;-73
2022/04/13 06:09:42;;;;;;;10.52;9.80;;;;;;;;;;4992658;28;20045;-74
2022/04/13 06:12:08;;;;;;;10.50;9.55;;;;;;;;;;5010332;28;20064;-73
2022/04/13 06:14:34;;;;;;;11.68;10.77;;;;;;;;;;5010683;28;20576;-73
2022/04/13 06:17:00;;;;;;;12.38;9.77;;;;;;;;;;5010832;28;20045;-74
2022/04/13 06:19:26;;;;;;;10.88;10.18;;;;;;;;;;4993794;28;20514;-74
2022/04/13 06:21:51;;;;;;;10.73;9.93;;;;;;;;;;5009906;28;20041;-74
2022/04/13 06:24:17;;;;;;;9.98;9.00;;;;;;;;;;5010836;28;20054;-74
2022/04/13 06:26:43;;;;;;;12.43;11.35;;;;;;;;;;5010976;28;20049;-74
2022/04/13 06:29:09;;;;;;;10.25;9.20;;;;;;;;;;4992898;28;20077;-74
2022/04/13 06:31:35;;;;;;;10.18;9.23;;;;;;;;;;5003631;28;20480;-74
2022/04/13 06:34:02;;;;;;;10.00;9.20;;;;;;;;;;5010980;28;20050;-73
2022/04/13 06:36:27;;;;;;;11.57;10.15;;;;;;;;;;5023736;28;20041;-73
2022/04/13 06:38:54;;;;;;;8.50;7.80;;;;;;;;;;4993414;28;20058;-73
2022/04/13 06:41:21;;;;;;;11.25;9.73;;;;;;;;;;5009617;28;20045;-72
2022/04/13 06:43:47;;;;;;;9.55;8.85;;;;;;;;;;5009305;28;20053;-73
2022/04/13 06:46:13;;;;;;;10.30;9.27;;;;;;;;;;4991436;28;20267;-73
2022/04/13 06:48:39;;;;;;;11.77;10.77;;;;;;;;;;5009983;28;20073;-73
2022/04/13 06:51:05;;;;;;;9.93;9.02;;;;;;;;;;4991459;28;20065;-72
2022/04/13 06:53:31;;;;;;;7.60;7.00;;;;;;;;;;5009686;28;20049;-72
2022/04/13 06:55:57;;;;;;;10.23;8.05;;;;;;;;;;5008606;28;20057;-71
2022/04/13 06:58:23;;;;;;;20.58;8.60;;;;;;;;;;4991662;28;20041;-72
2022/04/13 07:00:49;;;;;;;8.10;7.40;;;;;;;;;;4991887;28;20030;-73
2022/04/13 07:03:15;;;;;;;14.48;7.95;;;;;;;;;;5009520;28;20119;-72
2022/04/13 07:05:40;;;;;;;9.05;8.15;;;;;;;;;;4991902;28;20510;-73
2022/04/13 07:08:06;;;;;;;9.13;7.70;;;;;;;;;;5009161;28;20041;-73
2022/04/13 07:10:32;;;;;;;7.38;6.85;;;;;;;;;;5009516;28;20038;-73
2022/04/13 07:12:58;;;;;;;8.98;8.00;;;;;;;;;;5009490;28;20073;-73
2022/04/13 07:15:24;;;;;;;7.93;7.25;;;;;;;;;;5009144;28;20155;-72
2022/04/13 07:17:50;;;;;;;8.50;7.68;;;;;;;;;;4991648;28;20196;-72
2022/04/13 07:20:17;;;;;;;8.90;8.05;;;;;;;;;;5008964;28;20522;-72
2022/04/13 07:22:49;;;;;;;6.90;6.40;;;;;;;;;;4993283;28;20054;-71
2022/04/13 07:25:19;;;;;;;9.00;8.20;;;;;;;;;;5008958;28;20042;-73
2022/04/13 07:27:45;;;;;;;8.75;7.95;;;;;;;;;;5009403;28;20038;-73
2022/04/13 07:30:11;;;;;;;10.15;8.35;;;;;;;;;;5008930;28;20647;-73
2022/04/13 07:32:37;;;;;;;8.48;7.68;;;;;;;;;;5009203;28;20340;-72
2022/04/13 07:35:03;;;;;;;8.45;7.60;;;;;;;;;;5008910;28;20088;-73
2022/04/13 07:37:29;;;;;;;8.52;7.60;;;;;;;;;;4991729;28;20038;-72
2022/04/13 07:39:55;;;;;;;9.43;8.63;;;;;;;;;;4975359;28;20473;-71
2022/04/13 07:42:22;;;;;;;10.25;7.70;;;;;;;;;;4991110;28;20053;-72
2022/04/13 07:44:47;;;;;;;10.75;8.43;;;;;;;;;;5009289;28;20156;-73
2022/04/13 07:47:17;;;;;;;8.10;7.30;;;;;;;;;;5008744;28;20048;-73
2022/04/13 07:49:46;;;;;;;9.05;7.95;;;;;;;;;;4991605;28;20486;-72
2022/04/13 07:52:12;;;;;;;13.07;8.35;;;;;;;;;;5023880;28;20112;-73
2022/04/13 07:54:38;;;;;;;11.25;8.57;;;;;;;;;;4991682;28;20061;-74
2022/04/13 07:57:04;;;;;;;6.53;6.00;;;;;;;;;;4991144;28;20054;-74
2022/04/13 07:59:30;;;;;;;9.75;8.50;;;;;;;;;;5024208;28;20042;-73
2022/04/13 08:01:56;;;;;;;13.88;8.25;;;;;;;;;;4993393;28;20466;-71
2022/04/13 08:04:22;;;;;;;9.55;8.38;;;;;;;;;;5012811;28;20441;-73
2022/04/13 08:06:48;;;;;;;8.90;7.97;;;;;;;;;;5012769;28;20387;-72
2022/04/13 08:09:14;;;;;;;10.05;8.63;;;;;;;;;;5012704;28;20045;-73
2022/04/13 08:11:40;;;;;;;8.90;7.82;;;;;;;;;;5011167;28;20038;-74
2022/04/13 08:14:06;;;;;;;18.25;9.13;;;;;;;;;;5012222;28;20112;-74
2022/04/13 08:16:32;;;;;;;10.68;9.57;;;;;;;;;;5012067;28;20417;-74
2022/04/13 08:18:57;;;;;;;10.15;8.43;;;;;;;;;;5028097;28;20061;-74
2022/04/13 08:21:23;;;;;;;21.25;8.23;;;;;;;;;;4994334;28;20757;-73
2022/04/13 08:23:49;;;;;;;10.55;9.05;;;;;;;;;;5011762;28;20049;-74
2022/04/13 08:26:15;;;;;;;13.77;9.73;;;;;;;;;;5009590;28;20068;-74
2022/04/13 08:28:41;;;;;;;10.30;7.60;;;;;;;;;;5013254;28;20080;-74
2022/04/13 08:31:09;;;;;;;9.80;8.65;;;;;;;;;;5012553;28;20038;-74
2022/04/13 08:33:35;;;;;;;15.98;9.85;;;;;;;;;;5014400;28;20050;-75
2022/04/13 08:36:01;;;;;;;9.45;8.45;;;;;;;;;;5013524;28;20366;-74
2022/04/13 08:38:27;;;;;;;8.63;7.88;;;;;;;;;;4995865;28;20136;-72
2022/04/13 08:40:59;;;;;;;10.05;8.10;;;;;;;;;;5013872;28;20041;-73
2022/04/13 08:43:27;;;;;;;9.32;8.43;;;;;;;;;;5014989;28;20069;-74
2022/04/13 08:45:53;;;;;;;10.65;9.50;;;;;;;;;;5005082;28;20060;-74
2022/04/13 08:48:22;;;;;;;11.60;9.18;;;;;;;;;;5020933;28;20469;-74
2022/04/13 08:50:47;;;;;;;10.05;9.00;;;;;;;;;;4999116;28;20063;-75
2022/04/13 08:53:13;;;;;;;10.20;8.00;;;;;;;;;;4996218;28;20457;-74
2022/04/13 08:55:41;;;;;;;8.65;7.82;;;;;;;;;;5012582;28;20488;-74
2022/04/13 08:58:07;;;;;;;15.45;9.95;;;;;;;;;;4995156;28;20042;-75
2022/04/13 09:00:33;;;;;;;8.75;7.90;;;;;;;;;;5012433;28;20038;-74
2022/04/13 09:03:18;;;;;;;10.68;8.40;;;;;;;;;;4995124;28;20045;-74
2022/04/13 09:05:44;;;;;;;12.13;8.30;;;;;;;;;;4995143;28;20042;-73
2022/04/13 09:08:31;;;;;;;9.20;8.20;;;;;;;;;;4995005;28;20136;-74
2022/04/13 09:10:57;;;;;;;11.10;9.98;;;;;;;;;;5005114;28;20034;-76
2022/04/13 09:13:26;;;;;;;10.52;9.45;;;;;;;;;;4994491;28;20068;-74
2022/04/13 09:15:51;;;;;;;10.98;9.25;;;;;;;;;;5012757;28;20038;-75
2022/04/13 09:18:17;;;;;;;10.52;9.43;;;;;;;;;;5012289;28;20053;-75
2022/04/13 09:20:43;;;;;;;11.07;8.77;;;;;;;;;;5012219;28;20474;-75
2022/04/13 09:23:09;;;;;;;8.00;7.05;;;;;;;;;;5012115;28;20052;-74
2022/04/13 09:25:36;;;;;;;9.55;8.65;;;;;;;;;;5011988;28;20496;-75
2022/04/13 09:28:02;;;;;;;15.82;10.27;;;;;;;;;;4994891;28;20049;-74
2022/04/13 09:30:28;;;;;;;12.85;9.82;;;;;;;;;;4996035;28;20453;-75
2022/04/13 09:32:54;;;;;;;12.38;8.75;;;;;;;;;;5014235;28;20037;-76
2022/04/13 09:35:20;;;;;;;9.93;8.43;;;;;;;;;;5013317;28;20484;-75
2022/04/13 09:37:46;;;;;;;11.27;10.18;;;;;;;;;;5013231;28;20418;-74
2022/04/13 09:40:31;;;;;;;11.27;9.00;;;;;;;;;;4997109;28;20046;-75
2022/04/13 09:43:03;;;;;;;18.30;9.55;;;;;;;;;;4997136;28;20053;-74
2022/04/13 09:45:28;;;;;;;;;;;;;;;;;;4994758;28;20139;-74
2022/04/13 09:47:54;;;;;;;12.25;9.80;;;;;;;;;;5012086;28;20345;-76
2022/04/13 09:50:23;;;;;;;11.35;8.77;;;;;;;;;;5011849;28;20030;-74
2022/04/13 09:52:51;;;;;;;16.45;10.90;;;;;;;;;;5011846;28;20052;-75
2022/04/13 09:55:20;;;;;;;15.13;10.57;;;;;;;;;;5011312;28;20492;-74
2022/04/13 09:57:47;;;;;;;12.80;11.43;;;;;;;;;;4977989;28;20129;-75
2022/04/13 10:00:13;;;;;;;10.85;9.82;;;;;;;;;;5011557;28;20062;-74
2022/04/13 10:02:39;;;;;;;11.55;9.35;;;;;;;;;;4993959;28;20145;-74
2022/04/13 10:05:09;;;;;;;17.30;11.10;;;;;;;;;;4993935;28;20045;-74
2022/04/13 10:07:35;;;;;;;13.18;10.88;;;;;;;;;;5011517;28;20092;-74
2022/04/13 10:10:01;;;;;;;16.92;10.90;;;;;;;;;;5011475;28;20049;-74
2022/04/13 10:12:27;;;;;;;18.80;10.55;;;;;;;;;;5010925;28;20595;-74
2022/04/13 10:15:05;;;;;;;18.08;10.07;;;;;;;;;;5011351;28;20050;-74
2022/04/13 10:17:32;;;;;;;12.10;10.88;;;;;;;;;;4993217;28;20144;-74
2022/04/13 10:19:58;;;;;;;13.20;9.55;;;;;;;;;;5011459;28;20509;-75
2022/04/13 10:22:24;;;;;;;12.93;8.95;;;;;;;;;;5010650;28;20046;-75
2022/04/13 10:24:50;;;;;;;14.68;9.90;;;;;;;;;;5010242;28;20046;-74
2022/04/13 10:27:17;;;;;;;12.07;8.82;;;;;;;;;;5010632;28;20087;-74
2022/04/13 10:29:44;;;;;;;15.25;9.68;;;;;;;;;;4993941;28;20041;-75
2022/04/13 10:32:14;;;;;;;18.77;10.07;;;;;;;;;;5010545;28;20509;-75
2022/04/13 10:34:43;;;;;;;14.52;9.85;;;;;;;;;;5011048;28;20550;-75
2022/04/13 10:37:09;;;;;;;13.63;10.27;;;;;;;;;;5010739;28;20498;-75
2022/04/13 10:39:35;;;;;;;16.38;10.13;;;;;;;;;;5010796;28;20041;-74
2022/04/13 10:42:01;;;;;;;22.98;11.18;;;;;;;;;;5010973;28;20426;-74
2022/04/13 10:44:34;;;;;;;15.93;10.38;;;;;;;;;;5025839;28;20069;-74
2022/04/13 10:47:04;;;;;;;22.40;11.00;;;;;;;;;;5012015;28;20093;-74
2022/04/13 10:49:31;;;;;;;22.02;10.88;;;;;;;;;;4995385;28;20188;-75
2022/04/13 10:51:59;;;;;;;21.42;10.93;;;;;;;;;;4994026;28;20034;-74
2022/04/13 10:54:26;;;;;;;15.02;10.20;;;;;;;;;;4993264;28;20054;-75
2022/04/13 10:56:56;;;;;;;28.33;13.65;;;;;;;;;;5010624;28;20048;-74
2022/04/13 10:59:24;;;;;;;15.10;10.98;;;;;;;;;;5010150;28;20682;-74
2022/04/13 11:01:58;;;;;;;23.25;10.07;;;;;;;;;;5010085;28;20037;-74
2022/04/13 11:04:23;;;;;;;10.43;9.00;;;;;;;;;;5009991;28;20063;-74
2022/04/13 11:06:49;;;;;;;13.40;10.35;;;;;;;;;;4976727;28;20041;-74
2022/04/13 11:09:15;;;;;;;18.77;15.38;;;;;;;;;;4960282;28;20105;-75
2022/04/13 11:11:41;;;;;;;16.95;11.23;;;;;;;;;;4992388;28;20045;-75
2022/04/13 11:14:20;;;;;;;15.88;10.40;;;;;;;;;;4992622;28;20061;-74
2022/04/13 11:16:46;;;;;;;19.17;9.35;;;;;;;;;;4992284;28;20045;-75
2022/04/13 11:19:12;;;;;;;15.10;10.85;;;;;;;;;;5010410;28;20120;-74
2022/04/13 11:21:51;;;;;;;11.50;9.23;;;;;;;;;;5009837;28;20081;-75
2022/04/13 11:24:33;;;;;;;17.73;11.80;;;;;;;;;;5009778;28;20042;-74
2022/04/13 11:26:59;;;;;;;13.00;9.85;;;;;;;;;;4992776;28;20128;-74
2022/04/13 11:29:28;;;;;;;22.08;11.82;;;;;;;;;;5009932;28;20070;-74
2022/04/13 11:32:00;;;;;;;18.05;9.63;;;;;;;;;;4974383;28;20530;-75
2022/04/13 11:34:36;;;;;;;21.70;12.68;;;;;;;;;;4990180;28;20050;-75
2022/04/13 11:37:04;;;;;;;18.50;10.82;;;;;;;;;;4994414;28;20441;-75
2022/04/13 11:39:45;;;;;;;10.93;8.27;;;;;;;;;;4997319;28;20046;-74
2022/04/13 11:42:21;;;;;;;9.57;8.55;;;;;;;;;;4996893;28;20038;-75
2022/04/13 11:44:47;;;;;;;14.75;10.85;;;;;;;;;;4996992;28;20054;-74
2022/04/13 11:47:14;;;;;;;15.57;11.02;;;;;;;;;;4995341;28;20040;-75
2022/04/13 11:49:56;;;;;;;15.20;11.25;;;;;;;;;;4996902;28;20050;-74
2022/04/13 11:52:37;;;;;;;18.13;9.48;;;;;;;;;;4996765;28;20185;-75
2022/04/13 11:55:04;;;;;;;18.40;10.63;;;;;;;;;;4996790;28;20054;-74
2022/04/13 11:57:50;;;;;;;17.50;11.18;;;;;;;;;;4996550;28;20042;-74
2022/04/13 12:00:36;;;;;;;14.93;11.43;;;;;;;;;;4996320;28;20062;-75
2022/04/13 12:03:01;;;;;;;16.70;10.73;;;;;;;;;;4997028;28;20046;-75
2022/04/13 12:05:27;;;;;;;17.58;10.38;;;;;;;;;;4979258;28;20046;-74
2022/04/13 12:07:53;;;;;;;14.20;12.70;;;;;;;;;;4996958;28;20449;-74
2022/04/13 12:10:19;;;;;;;17.88;13.05;;;;;;;;;;5011755;28;20057;-74
2022/04/13 12:12:55;;;;;;;16.52;10.75;;;;;;;;;;4996734;28;20035;-74
2022/04/13 12:15:23;;;;;;;16.50;12.32;;;;;;;;;;4978937;28;20081;-74
2022/04/13 12:17:54;;;;;;;18.35;11.45;;;;;;;;;;4996656;28;20042;-74
2022/04/13 12:20:27;;;;;;;18.80;13.25;;;;;;;;;;4996629;28;20042;-75
2022/04/13 12:22:55;;;;;;;16.08;8.88;;;;;;;;;;4996944;28;20130;-74
2022/04/13 12:25:21;;;;;;;14.02;10.90;;;;;;;;;;4996431;28;20489;-74
2022/04/13 12:28:07;;;;;;;21.05;12.02;;;;;;;;;;4996649;28;20053;-74
2022/04/13 12:30:33;;;;;;;13.20;9.38;;;;;;;;;;4996426;28;20046;-74
2022/04/13 12:32:59;;;;;;;14.23;11.05;;;;;;;;;;5014637;28;20116;-75
2022/04/13 12:35:25;;;;;;;20.95;10.68;;;;;;;;;;5014534;28;20050;-74
2022/04/13 12:37:51;;;;;;;12.05;9.60;;;;;;;;;;5016238;28;20052;-74
2022/04/13 12:40:28;;;;;;;13.68;11.10;;;;;;;;;;5016308;28;20038;-74
2022/04/13 12:42:54;;;;;;;18.92;10.77;;;;;;;;;;5015060;28;20053;-74
2022/04/13 12:45:29;;;;;;;16.30;11.52;;;;;;;;;;5015791;28;20045;-74
2022/04/13 12:47:55;;;;;;;12.50;11.20;;;;;;;;;;5014013;28;20146;-74
2022/04/13 12:50:21;;;;;;;15.80;11.35;;;;;;;;;;5012826;28;20041;-75
2022/04/13 12:52:55;;;;;;;16.60;11.95;;;;;;;;;;5012829;28;20046;-74
2022/04/13 12:55:21;;;;;;;15.82;10.13;;;;;;;;;;5012568;28;20045;-74
2022/04/13 12:57:47;;;;;;;13.15;10.18;;;;;;;;;;5012694;28;20426;-74
2022/04/13 13:00:18;;;;;;;17.05;9.88;;;;;;;;;;5012985;28;20045;-74
2022/04/13 13:02:49;;;;;;;18.77;12.02;;;;;;;;;;4995050;28;20049;-74
2022/04/13 13:05:15;;;;;;;12.68;10.70;;;;;;;;;;4995646;28;20474;-75
2022/04/13 13:07:43;;;;;;;17.25;10.63;;;;;;;;;;4994999;28;20042;-74
2022/04/13 13:10:09;;;;;;;9.27;8.38;;;;;;;;;;5013383;28;20139;-74
2022/04/13 13:12:39;;;;;;;14.43;9.30;;;;;;;;;;5027751;28;20520;-74
2022/04/13 13:15:04;;;;;;;11.73;9.00;;;;;;;;;;4979724;28;20060;-74
2022/04/13 13:17:39;;;;;;;18.60;11.98;;;;;;;;;;5013545;28;20046;-74
2022/04/13 13:20:17;;;;;;;15.90;8.38;;;;;;;;;;4980647;28;20041;-74
2022/04/13 13:22:47;;;;;;;14.82;9.30;;;;;;;;;;5012759;28;20348;-74
2022/04/13 13:25:16;;;;;;;8.15;7.35;;;;;;;;;;5028566;28;20644;-75
2022/04/13 13:27:47;;;;;;;11.80;8.38;;;;;;;;;;5013408;28;20576;-74
2022/04/13 13:30:14;;;;;;;12.18;8.05;;;;;;;;;;4996080;28;20425;-74
2022/04/13 13:32:41;;;;;;;7.78;7.13;;;;;;;;;;4990122;28;20553;-74
2022/04/13 13:35:09;;;;;;;11.60;6.45;;;;;;;;;;5003360;28;20043;-75
2022/04/13 13:37:47;;;;;;;6.97;6.38;;;;;;;;;;5003483;28;20047;-75
2022/04/13 13:40:41;;;;;;;5.47;4.85;;;;;;;;;;5000236;28;20129;-74
2022/04/13 13:43:07;;;;;;;6.93;5.90;;;;;;;;;;4996299;28;20053;-75
2022/04/13 13:45:37;;;;;;;5.05;4.72;;;;;;;;;;4991456;28;20121;-74
2022/04/13 13:48:03;;;;;;;5.20;3.90;;;;;;;;;;4990799;28;20049;-75
2022/04/13 13:50:32;;;;;;;4.95;4.47;;;;;;;;;;4971004;28;20430;-75
2022/04/13 13:52:58;;;;;;;6.45;4.47;;;;;;;;;;4990474;28;20038;-75
2022/04/13 13:55:25;;;;;;;6.05;4.65;;;;;;;;;;4975759;28;20506;-75
2022/04/13 13:57:51;;;;;;;3.83;3.50;;;;;;;;;;5010580;28;20088;-74
2022/04/13 14:00:17;;;;;;;7.30;3.90;;;;;;;;;;4976457;28;20125;-74
2022/04/13 14:02:47;;;;;;;5.88;3.78;;;;;;;;;;5009734;28;20187;-74
2022/04/13 14:05:13;;;;;;;8.30;3.57;;;;;;;;;;4976321;28;20049;-74
2022/04/13 14:07:39;;;;;;;10.02;3.53;;;;;;;;;;5009513;28;20045;-75
2022/04/13 14:10:05;;;;;;;3.65;3.08;;;;;;;;;;5009938;28;20038;-74
2022/04/13 14:12:31;;;;;;;3.67;2.88;;;;;;;;;;4989375;28;20417;-75
2022/04/13 14:14:57;;;;;;;6.75;3.35;;;;;;;;;;5009795;28;20046;-74
2022/04/13 14:17:23;;;;;;;3.30;3.00;;;;;;;;;;5007946;28;20045;-75
2022/04/13 14:19:50;;;;;;;2.35;2.25;;;;;;;;;;5009584;28;20436;-74
2022/04/13 14:22:16;;;;;;;6.45;2.75;;;;;;;;;;4991773;28;20045;-74
2022/04/13 14:24:42;;;;;;;2.38;2.28;;;;;;;;;;5009283;28;20041;-75
2022/04/13 14:27:08;;;;;;;2.72;1.90;;;;;;;;;;5009245;28;20095;-75
2022/04/13 14:29:33;;;;;;;2.38;2.17;;;;;;;;;;5009224;28;20046;-75
2022/04/13 14:31:59;;;;;;;2.47;2.38;;;;;;;;;;5009397;28;20053;-74
2022/04/13 14:34:25;;;;;;;1.88;1.88;;;;;;;;;;4975947;28;20054;-75
2022/04/13 14:36:51;;;;;;;6.20;2.53;;;;;;;;;;4997430;28;20065;-74
2022/04/13 14:39:17;;;;;;;3.08;2.75;;;;;;;;;;4991931;28;20092;-74
2022/04/13 14:41:43;;;;;;;3.70;2.38;;;;;;;;;;5009153;28;20042;-74
2022/04/13 14:44:09;;;;;;;3.28;2.30;;;;;;;;;;4976045;28;20091;-75
2022/04/13 14:46:35;;;;;;;4.07;2.67;;;;;;;;;;5000827;28;20465;-74
2022/04/13 14:49:01;;;;;;;3.50;2.72;;;;;;;;;;4975867;28;20050;-75
2022/04/13 14:51:27;;;;;;;4.50;2.60;;;;;;;;;;5008903;28;20582;-75
2022/04/13 14:53:55;;;;;;;2.95;2.10;;;;;;;;;;5009047;28;20054;-75
2022/04/13 14:56:22;;;;;;;3.25;2.15;;;;;;;;;;5008761;28;20538;-75
2022/04/13 14:58:48;;;;;;;6.07;2.35;;;;;;;;;;5005827;28;20046;-74
2022/04/13 15:01:14;;;;;;;8.93;2.40;;;;;;;;;;5008554;28;20049;-75
2022/04/13 15:03:40;;;;;;;2.75;2.55;;;;;;;;;;4992550;28;20038;-75
2022/04/13 15:06:06;;;;;;;3.03;2.75;;;;;;;;;;5002527;28;20100;-75
2022/04/13 15:08:32;;;;;;;4.82;2.30;;;;;;;;;;5009534;28;20041;-75
2022/04/13 15:10:59;;;;;;;2.90;2.22;;;;;;;;;;4971881;28;20042;-75
2022/04/13 15:13:24;;;;;;;2.72;2.53;;;;;;;;;;5008468;28;20043;-75
2022/04/13 15:15:50;;;;;;;5.35;2.67;;;;;;;;;;5009193;28;20030;-75
2022/04/13 15:18:16;;;;;;;3.03;2.60;;;;;;;;;;4992302;28;20064;-76
2022/04/13 15:20:42;;;;;;;3.13;2.83;;;;;;;;;;4991220;28;20037;-75
2022/04/13 15:23:08;;;;;;;3.33;3.03;;;;;;;;;;5007200;28;20038;-75
2022/04/13 15:25:34;;;;;;;3.50;3.17;;;;;;;;;;5008201;28;20095;-74
2022/04/13 15:28:00;;;;;;;6.90;3.90;;;;;;;;;;5009469;28;20069;-75
2022/04/13 15:30:28;;;;;;;6.65;4.50;;;;;;;;;;4975002;28;20521;-74
2022/04/13 15:32:54;;;;;;;10.73;3.78;;;;;;;;;;5008354;28;20069;-74
2022/04/13 15:35:20;;;;;;;6.38;4.25;;;;;;;;;;5008531;28;20045;-74
2022/04/13 15:37:45;;;;;;;4.15;3.20;;;;;;;;;;5008098;28;20049;-74
2022/04/13 15:40:12;;;;;;;3.83;3.40;;;;;;;;;;5008731;28;20042;-75
2022/04/13 15:42:38;;;;;;;4.95;3.00;;;;;;;;;;4974368;28;20046;-74
2022/04/13 15:45:04;;;;;;;6.20;3.28;;;;;;;;;;5008272;28;20424;-74
2022/04/13 15:47:31;;;;;;;5.72;3.55;;;;;;;;;;5007957;28;20049;-75
2022/04/13 15:49:57;;;;;;;7.43;4.78;;;;;;;;;;5008215;28;20069;-74
2022/04/13 15:52:26;;;;;;;8.57;4.35;;;;;;;;;;4990688;28;20030;-75
2022/04/13 15:54:55;;;;;;;5.30;3.63;;;;;;;;;;5007336;28;20049;-74
2022/04/13 15:57:21;;;;;;;6.25;3.30;;;;;;;;;;4973699;28;20096;-75
2022/04/13 15:59:48;;;;;;;10.23;4.05;;;;;;;;;;4991080;28;20042;-75
2022/04/13 16:02:14;;;;;;;6.18;4.53;;;;;;;;;;4991608;28;20041;-75
2022/04/13 16:04:41;;;;;;;9.25;3.90;;;;;;;;;;4990679;28;20092;-74
2022/04/13 16:07:07;;;;;;;8.82;4.35;;;;;;;;;;5008014;28;20073;-74
2022/04/13 16:09:33;;;;;;;5.55;4.63;;;;;;;;;;5007768;28;20033;-74
2022/04/13 16:11:59;;;;;;;4.07;3.78;;;;;;;;;;4990809;28;20057;-74
2022/04/13 16:14:26;;;;;;;4.07;3.50;;;;;;;;;;5008185;28;20038;-74
2022/04/13 16:16:53;;;;;;;4.90;4.20;;;;;;;;;;5007812;28;20049;-74
2022/04/13 16:19:20;;;;;;;4.80;4.28;;;;;;;;;;4974761;28;20049;-74
2022/04/13 16:21:46;;;;;;;4.22;3.83;;;;;;;;;;4990517;28;20033;-74
2022/04/13 16:24:12;;;;;;;7.07;5.68;;;;;;;;;;5014579;28;20042;-75
2022/04/13 16:26:38;;;;;;;5.03;4.57;;;;;;;;;;5012967;28;20084;-74
2022/04/13 16:29:04;;;;;;;4.90;4.28;;;;;;;;;;4994807;28;20046;-74
2022/04/13 16:31:34;;;;;;;5.68;4.57;;;;;;;;;;4995707;28;20041;-75
2022/04/13 16:34:02;;;;;;;5.47;4.20;;;;;;;;;;4997017;28;20164;-75
2022/04/13 16:36:28;;;;;;;5.75;4.40;;;;;;;;;;5014293;28;20626;-74
2022/04/13 16:38:57;;;;;;;4.90;4.00;;;;;;;;;;5020388;28;20173;-75
2022/04/13 16:41:23;;;;;;;6.50;4.63;;;;;;;;;;5021098;28;20057;-74
2022/04/13 16:43:52;;;;;;;7.95;4.20;;;;;;;;;;5019498;28;20518;-74
2022/04/13 16:46:18;;;;;;;8.68;4.65;;;;;;;;;;5000449;28;20069;-74
2022/04/13 16:48:47;;;;;;;6.60;4.38;;;;;;;;;;4995898;28;20548;-75
2022/04/13 16:51:13;;;;;;;5.00;3.90;;;;;;;;;;5014125;28;20072;-74
2022/04/13 16:53:45;;;;;;;4.60;3.15;;;;;;;;;;5013584;28;20112;-74
2022/04/13 16:56:11;;;;;;;5.20;4.28;;;;;;;;;;5013218;28;20054;-74
2022/04/13 16:58:37;;;;;;;5.07;4.57;;;;;;;;;;5013475;28;20075;-74
2022/04/13 17:01:03;;;;;;;5.03;3.83;;;;;;;;;;4995608;28;20069;-74
2022/04/13 17:03:31;;;;;;;4.95;4.35;;;;;;;;;;5012968;28;20588;-75
2022/04/13 17:05:58;;;;;;;6.82;5.25;;;;;;;;;;5013459;28;20034;-74
2022/04/13 17:08:24;;;;;;;4.20;3.90;;;;;;;;;;5012765;28;20050;-74
2022/04/13 17:10:50;;;;;;;5.05;4.55;;;;;;;;;;5012815;28;20513;-74
2022/04/13 17:13:16;;;;;;;4.60;4.20;;;;;;;;;;4995950;28;20038;-74
2022/04/13 17:15:42;;;;;;;4.05;3.65;;;;;;;;;;4979805;28;20160;-76
2022/04/13 17:18:08;;;;;;;5.53;4.47;;;;;;;;;;5014199;28;20041;-75
2022/04/13 17:20:39;;;;;;;6.38;4.88;;;;;;;;;;4996772;28;20472;-74
2022/04/13 17:23:05;;;;;;;9.63;5.20;;;;;;;;;;4997305;28;20520;-74
2022/04/13 17:25:31;;;;;;;6.75;4.55;;;;;;;;;;5015471;28;20289;-74
2022/04/13 17:27:57;;;;;;;6.97;5.20;;;;;;;;;;4995102;28;20037;-74
2022/04/13 17:30:23;;;;;;;10.15;4.88;;;;;;;;;;5012176;28;20502;-74